WetterOnline ( https://www.wetteronline.de )

Wetter aktuell Simbach

Aktuelles Wetter: Gottfrieding (350m)

6-stündlich | Neueste Meldungen
Ortszeit Temperatur Wetter
Fr, 23.08. 8:00 16.8° C bewölkt
Fr, 23.08. 2:00 13.9° C wolkenlos
Do, 22.08. 20:00 21.2° C bedeckt
Do, 22.08. 14:00 21.1° C wolkig
Do, 22.08. 8:00 13.7° C wolkig
Do, 22.08. 2:00 13.3° C bedeckt
Mi, 21.08. 20:00 17.8° C bedeckt
Mi, 21.08. 14:00 18.8° C wolkig
Ortszeit Temperatur Wetter
Fr, 23.08. 9:30 18.7° C bewölkt
Fr, 23.08. 9:20 18.7° C bewölkt
Fr, 23.08. 9:10 18.9° C bewölkt
Fr, 23.08. 9:00 18.1° C bewölkt
Fr, 23.08. 8:50 18.1° C bewölkt
Fr, 23.08. 8:40 18.0° C bewölkt
Fr, 23.08. 8:30 17.5° C bewölkt
Fr, 23.08. 8:00 16.8° C bewölkt
Fr, 23.08. 7:30 16.0° C bedeckt
Fr, 23.08. 7:00 15.6° C bedeckt
Fr, 23.08. 6:30 15.3° C bedeckt
Ortszeit Relative Feuchte Sichtweite
Fr, 23.08. 8:00 90% 7 km
Fr, 23.08. 2:00 99% 6 km
Do, 22.08. 20:00 80% 29 km
Do, 22.08. 14:00 61% 24 km
Do, 22.08. 8:00 92% 14 km
Do, 22.08. 2:00 97% 13 km
Mi, 21.08. 20:00 76% 70 km
Mi, 21.08. 14:00 61% 26 km
Ortszeit Relative Feuchte Sichtweite
Fr, 23.08. 9:30 79% 10 km
Fr, 23.08. 9:20 79% -
Fr, 23.08. 9:10 77% -
Fr, 23.08. 9:00 84% 8 km
Fr, 23.08. 8:50 84% -
Fr, 23.08. 8:40 85% -
Fr, 23.08. 8:30 84% 7 km
Fr, 23.08. 8:00 90% 7 km
Fr, 23.08. 7:30 94% 5.0 km
Fr, 23.08. 7:00 97% 4.7 km
Fr, 23.08. 6:30 97% 5.0 km
Ortszeit Niederschlagsmenge Niederschlagsart
Fr, 23.08. 8:00 0.0 l/m2 in 12 Std. -
Fr, 23.08. 2:00 0.0 l/m2 in 6 Std. -
Do, 22.08. 20:00 0.0 l/m2 in 12 Std. -
Do, 22.08. 14:00 0.0 l/m2 in 6 Std. -
Do, 22.08. 8:00 0.0 l/m2 in 12 Std. -
Do, 22.08. 2:00 0.0 l/m2 in 6 Std. -
Mi, 21.08. 20:00 0.1 l/m2 in 12 Std. Sprühregen
Mi, 21.08. 14:00 0.0 l/m2 in 6 Std. -
Ortszeit Niederschlagsmenge Niederschlagsart
Fr, 23.08. 9:30 0.0 l/m2 in 1 Std. -
Fr, 23.08. 9:20 keine Meldung -
Fr, 23.08. 9:10 keine Meldung -
Fr, 23.08. 9:00 0.0 l/m2 in 1 Std. -
Fr, 23.08. 8:50 keine Meldung -
Fr, 23.08. 8:40 keine Meldung -
Fr, 23.08. 8:30 0.0 l/m2 in 1 Std. -
Fr, 23.08. 8:00 0.0 l/m2 in 1 Std. -
Fr, 23.08. 7:30 0.0 l/m2 in 1 Std. -
Fr, 23.08. 7:00 0.0 l/m2 in 1 Std. -
Fr, 23.08. 6:30 0.0 l/m2 in 1 Std. -
Ortszeit Stärke Spitze Richtung
km/h Bft. km/h Grad Sektor
Fr, 23.08. 8:00 2 1 17 320° NW
Fr, 23.08. 2:00 4 1 7 250° W
Do, 22.08. 20:00 0 0 18 - -
Do, 22.08. 14:00 9 2 22 30° NO
Do, 22.08. 8:00 4 1 11 20° N
Do, 22.08. 2:00 6 1 11 50° NO
Mi, 21.08. 20:00 7 2 26 100° O
Mi, 21.08. 14:00 9 2 17 50° NO
Ortszeit Stärke Spitze Richtung
km/h Bft. km/h Grad Sektor
Fr, 23.08. 9:30 7 2 11 50° NO
Fr, 23.08. 9:20 7 2 - 50° NO
Fr, 23.08. 9:10 6 1 - 50° NO
Fr, 23.08. 9:00 4 1 7 30° NO
Fr, 23.08. 8:50 4 1 - 30° NO
Fr, 23.08. 8:40 4 1 - 30° NO
Fr, 23.08. 8:30 4 1 7 100° O
Fr, 23.08. 8:00 2 1 6 320° NW
Fr, 23.08. 7:30 4 1 4 130° SO
Fr, 23.08. 7:00 2 1 6 90° O
Fr, 23.08. 6:30 4 1 7 10° N
Ortszeit Untergrenze Bedeckung Gattung
total tief tief mittel hoch
Fr, 23.08. 8:00 1440 m 7/8 7/8 - - -
Fr, 23.08. 2:00 - 0/8 0/8 - - -
Do, 22.08. 20:00 1500 m 8/8 8/8 - - -
Do, 22.08. 14:00 1170 m 7/8 3/8 - - -
Do, 22.08. 8:00 7800 m 8/8 0/8 - - -
Do, 22.08. 2:00 5700 m 8/8 8/8 - - -
Mi, 21.08. 20:00 1500 m 8/8 8/8 - - -
Mi, 21.08. 14:00 960 m 6/8 4/8 - - -
Ortszeit Bedeckungsgrad in Achtel und Wolkenuntergrenze
Fr, 23.08. 9:30 7(1410m)
Fr, 23.08. 9:20 7(1410m)
Fr, 23.08. 9:10 7(1410m)
Fr, 23.08. 9:00 7(1440m)
Fr, 23.08. 8:50 7(1440m)
Fr, 23.08. 8:40 7(1470m)
Fr, 23.08. 8:30 7(1500m)
Fr, 23.08. 8:00 7(1440m)
Fr, 23.08. 7:30 8(1410m)
Fr, 23.08. 7:00 8(1380m)
Fr, 23.08. 6:30 8(1410m)
Ortszeit Luftdruck NN (hPa) Tendenz (hPa in 3 Std.)
Fr, 23.08. 8:00 1026 + 0,1
Fr, 23.08. 2:00 1026 - 0,2
Do, 22.08. 20:00 1024 + 0,2
Do, 22.08. 14:00 1025 - 0,4
Do, 22.08. 8:00 1027 + 0,7
Do, 22.08. 2:00 1027 - 0,6
Mi, 21.08. 20:00 1027 0,0
Mi, 21.08. 14:00 1028 - 0,9
Ortszeit Luftdruck NN (hPa) Tendenz (hPa in 3 Std.)
Fr, 23.08. 9:30 1026 + 0,3
Fr, 23.08. 9:20 1026 keine Meldung
Fr, 23.08. 9:10 1026 keine Meldung
Fr, 23.08. 9:00 1026 + 0,4
Fr, 23.08. 8:50 1026 keine Meldung
Fr, 23.08. 8:40 1026 keine Meldung
Fr, 23.08. 8:30 1026 + 0,3
Fr, 23.08. 8:00 1026 + 0,1
Fr, 23.08. 7:30 1026 0,0
Fr, 23.08. 7:00 1026 - 0,2
Fr, 23.08. 6:30 1026 - 0,2
Ortszeit Schneehöhe (cm)
Fr, 23.08. 8:00 -
Fr, 23.08. 2:00 -
Do, 22.08. 20:00 -
Do, 22.08. 14:00 -
Do, 22.08. 8:00 -
Do, 22.08. 2:00 -
Mi, 21.08. 20:00 -
Mi, 21.08. 14:00 -
Ortszeit Schneehöhe (cm)
Fr, 23.08. 9:30 -
Fr, 23.08. 9:20 -
Fr, 23.08. 9:10 -
Fr, 23.08. 9:00 -
Fr, 23.08. 8:50 -
Fr, 23.08. 8:40 -
Fr, 23.08. 8:30 -
Fr, 23.08. 8:00 -
Fr, 23.08. 7:30 -
Fr, 23.08. 7:00 -
Fr, 23.08. 6:30 -
Link zu dieser Seite / Seite empfehlen

Das Wetter in ...